首页
METAR-TAF:

METAR-TAF

机场 :

弗罗茨瓦夫, 波兰

纬度: 51-06N, 经度: 016-53E, 海拔: 120米

当前天气观测

该预报发布于15分钟前的09:30 UTC
风速17节,风向西北
温度 5°C
湿度 75%
气压 1016 hPa
能见度10公里或以上
多云层高于1700英尺

METAR: EPWR 290930Z 31017KT 9999 BKN017 05/01 Q1016

时间: 11:45 (09:45 UTC)

预报

该预报发布于1小时和15分钟前的08:30 UTC
预报有效从29日的 09点(UTC)到 30日的 09点(UTC)
风速15节,风向西北
能见度10公里或以上
1500米以下无云,无积雨云
短暂存在
从 29日的 10点(UTC)到 29日的 21点(UTC)
风速15节,风向北转西北,有时为28节阵风
多云层高于2500英尺, 积雨云.
阵雨
成为
从 29日的 12点(UTC)到 29日的 14点(UTC)
风速15节,风向
几率 40% :
短暂存在
从 29日的 14点(UTC)到 29日的 22点(UTC)
风速25节,风向,有时为35节阵风
能見度: 4000
多云层高于900英尺
多云层高于1400英尺, 积雨云.
阵雪

TAF: EPWR 290830Z 2909/3009 31015KT CAVOK TEMPO 2910/2921 34015G28KT SHRA BKN025CB BECMG 2912/2914 01015KT PROB40 TEMPO 2914/2922 01025G35KT 4000 SHSN BKN009 BKN014CB

超过4000个机场的气象观测和天气预报(METAR&TAF报告)。

可查询的气象台以黄色和红色小点在地图上表示。

将鼠标移到小点上方,可查看气象台名称。

然后点击查看天气观测和预报。

如需切换地图:点击带黑十字的绿色按钮放大地图;点击带横线的绿色按钮缩小地图;或者点击绿色箭头查看邻近地区的地图。


METAR-TAF: